Time;durP1;ratioP1;P1;durP2;ratioP2;P2;SDS_P1;SDS_P2;PMS_P1;PMS_P2;Temp;Humidity;BMP_temperature;BMP_pressure;BME280_temperature;BME280_humidity;BME280_pressure;Samples;Min_cycle;Max_cycle;Signal;HPM_P1;HPM_P2
2020/12/14 00:00:28;;;;;;;2.40;1.60;;;4.10;75.90;;;;;;5080333;28;20401;-70
2020/12/14 00:02:54;;;;;;;3.03;1.30;;;4.30;74.80;;;;;;5080276;28;20020;-70
2020/12/14 00:05:19;;;;;;;1.50;0.88;;;4.40;73.90;;;;;;5080254;28;20020;-70
2020/12/14 00:07:45;;;;;;;2.03;1.23;;;4.50;72.50;;;;;;5080219;28;20021;-70
2020/12/14 00:10:11;;;;;;;1.48;1.00;;;4.60;72.70;;;;;;5080320;28;20036;-70
2020/12/14 00:12:36;;;;;;;4.82;1.33;;;4.70;71.70;;;;;;5080089;28;20085;-70
2020/12/14 00:15:04;;;;;;;1.73;1.27;;;4.80;71.80;;;;;;5080134;28;20074;-70
2020/12/14 00:17:30;;;;;;;2.15;1.25;;;4.80;71.70;;;;;;5079975;28;20024;-70
2020/12/14 00:19:55;;;;;;;1.67;1.08;;;4.80;71.70;;;;;;5079925;28;20029;-70
2020/12/14 00:22:22;;;;;;;1.90;1.00;;;4.80;71.30;;;;;;5079914;28;20032;-70
2020/12/14 00:24:47;;;;;;;3.45;2.30;;;4.80;71.30;;;;;;5061978;28;20025;-70
2020/12/14 00:27:13;;;;;;;3.95;2.65;;;4.80;72.30;;;;;;5080344;28;20044;-71
2020/12/14 00:29:39;;;;;;;3.85;2.60;;;4.70;72.20;;;;;;5079804;28;20073;-72
2020/12/14 00:32:04;;;;;;;3.25;2.08;;;4.70;72.30;;;;;;5079962;28;20036;-72
2020/12/14 00:34:30;;;;;;;1.55;1.00;;;4.70;72.10;;;;;;5079714;28;20032;-72
2020/12/14 00:36:56;;;;;;;1.58;1.00;;;4.70;71.20;;;;;;5061911;28;20024;-70
2020/12/14 00:39:21;;;;;;;1.17;0.82;;;4.70;71.20;;;;;;5061876;28;20078;-71
2020/12/14 00:41:47;;;;;;;1.20;0.80;;;4.70;70.40;;;;;;5079841;28;20099;-70
2020/12/14 00:44:12;;;;;;;1.30;0.70;;;4.80;70.90;;;;;;5079760;28;20024;-70
2020/12/14 00:46:38;;;;;;;1.17;0.70;;;4.80;71.30;;;;;;5061433;28;20119;-70
2020/12/14 00:49:04;;;;;;;1.15;0.70;;;4.70;71.70;;;;;;5079459;28;20021;-70
2020/12/14 00:51:31;;;;;;;1.48;0.82;;;4.60;71.40;;;;;;5079582;28;20063;-70
2020/12/14 00:53:57;;;;;;;2.47;1.50;;;4.50;71.20;;;;;;5079501;28;20074;-70
2020/12/14 00:56:26;;;;;;;1.70;1.00;;;4.50;72.30;;;;;;5079374;28;20343;-70
2020/12/14 00:58:52;;;;;;;1.83;1.00;;;4.50;72.20;;;;;;5061528;28;20024;-70
2020/12/14 01:01:18;;;;;;;1.20;0.82;;;4.40;72.90;;;;;;5079195;28;20472;-71
2020/12/14 01:03:44;;;;;;;1.15;0.82;;;4.40;73.30;;;;;;5078574;28;20017;-72
2020/12/14 01:06:10;;;;;;;1.58;0.90;;;4.40;73.90;;;;;;5079252;28;20056;-70
2020/12/14 01:08:35;;;;;;;1.42;0.95;;;4.30;74.60;;;;;;5061393;28;20075;-70
2020/12/14 01:11:01;;;;;;;1.65;1.13;;;4.10;75.00;;;;;;5079098;28;20029;-70
2020/12/14 01:13:27;;;;;;;1.80;1.08;;;4.00;75.70;;;;;;5078983;28;20012;-70
2020/12/14 01:15:56;;;;;;;2.25;1.10;;;3.90;75.50;;;;;;5078941;28;20343;-71
2020/12/14 01:18:22;;;;;;;3.65;1.10;;;3.90;76.00;;;;;;5079029;28;20025;-72
2020/12/14 01:20:48;;;;;;;1.10;0.73;;;3.80;75.80;;;;;;5078823;28;20083;-72
2020/12/14 01:23:14;;;;;;;0.77;0.60;;;3.80;75.40;;;;;;5061024;28;20420;-70
2020/12/14 01:25:40;;;;;;;1.70;0.80;;;3.80;75.50;;;;;;5078630;28;20052;-70
2020/12/14 01:28:08;;;;;;;1.30;0.90;;;3.70;76.30;;;;;;5078734;28;20051;-71
2020/12/14 01:30:34;;;;;;;1.27;1.05;;;3.60;76.40;;;;;;5060969;28;20056;-70
2020/12/14 01:33:01;;;;;;;2.20;1.05;;;3.60;76.60;;;;;;5078609;28;20028;-69
2020/12/14 01:35:27;;;;;;;2.50;1.27;;;3.60;76.80;;;;;;5060766;28;20031;-71
2020/12/14 01:37:53;;;;;;;1.75;1.30;;;3.60;76.70;;;;;;5078509;28;20400;-72
2020/12/14 01:40:20;;;;;;;1.98;1.08;;;3.60;76.60;;;;;;5078469;28;20054;-72
2020/12/14 01:42:49;;;;;;;1.70;1.25;;;3.70;76.70;;;;;;5078590;28;20103;-72
2020/12/14 01:45:16;;;;;;;1.73;1.23;;;3.60;76.90;;;;;;5078393;28;20392;-71
2020/12/14 01:47:43;;;;;;;3.55;1.83;;;3.60;77.00;;;;;;5078290;28;20017;-70
2020/12/14 01:50:12;;;;;;;2.03;1.45;;;3.60;77.60;;;;;;5078536;28;20028;-70
2020/12/14 01:52:43;;;;;;;1.95;1.35;;;3.50;78.10;;;;;;5060486;28;20078;-70
2020/12/14 01:55:12;;;;;;;2.40;1.52;;;3.50;78.40;;;;;;5078640;28;20035;-71
2020/12/14 01:57:37;;;;;;;2.22;1.45;;;3.40;78.40;;;;;;5060398;28;20024;-72
2020/12/14 02:00:08;;;;;;;2.03;1.15;;;3.40;78.40;;;;;;5077821;28;20469;-72
2020/12/14 02:02:34;;;;;;;1.85;1.45;;;3.40;78.30;;;;;;5060319;28;20029;-72
2020/12/14 02:05:02;;;;;;;2.67;1.35;;;3.40;78.20;;;;;;5077923;28;20050;-72
2020/12/14 02:07:28;;;;;;;1.80;1.17;;;3.30;78.20;;;;;;5060186;28;20033;-72
2020/12/14 02:09:54;;;;;;;1.50;1.10;;;3.30;77.70;;;;;;5078092;28;20034;-71
2020/12/14 02:12:24;;;;;;;1.38;0.80;;;3.40;77.20;;;;;;5060126;28;20028;-70
2020/12/14 02:14:55;;;;;;;2.22;1.65;;;3.50;76.90;;;;;;5060298;28;20081;-70
2020/12/14 02:17:29;;;;;;;1.35;0.95;;;3.60;76.40;;;;;;5076767;28;20021;-70
2020/12/14 02:19:55;;;;;;;1.60;0.80;;;3.60;76.20;;;;;;5077691;28;20085;-70
2020/12/14 02:22:25;;;;;;;1.63;1.10;;;3.60;75.90;;;;;;5077645;28;20020;-70
2020/12/14 02:24:54;;;;;;;2.03;1.50;;;3.60;75.90;;;;;;5077775;28;20035;-72
2020/12/14 02:27:19;;;;;;;1.45;0.77;;;3.50;75.80;;;;;;5077587;28;20024;-72
2020/12/14 02:29:47;;;;;;;1.20;0.80;;;3.50;76.00;;;;;;5077825;28;20035;-72
2020/12/14 02:32:14;;;;;;;1.33;0.70;;;3.50;76.50;;;;;;5077459;28;20029;-72
2020/12/14 02:34:40;;;;;;;0.88;0.60;;;3.50;77.10;;;;;;5077371;28;20099;-72
2020/12/14 02:37:11;;;;;;;1.05;0.70;;;3.50;77.00;;;;;;5059637;28;20031;-70
2020/12/14 02:39:37;;;;;;;1.27;0.82;;;3.50;76.50;;;;;;5077473;28;20104;-70
2020/12/14 02:42:23;;;;;;;1.52;0.93;;;3.60;75.20;;;;;;5077549;28;20021;-71
2020/12/14 02:44:52;;;;;;;2.78;0.70;;;3.60;75.10;;;;;;5077427;28;20028;-71
2020/12/14 02:47:18;;;;;;;1.20;0.70;;;3.70;74.80;;;;;;5059485;28;20021;-72
2020/12/14 02:49:44;;;;;;;1.08;0.60;;;3.70;75.00;;;;;;5077302;28;20111;-72
2020/12/14 02:52:11;;;;;;;1.02;0.60;;;3.80;73.70;;;;;;5077240;28;20051;-72
2020/12/14 02:54:38;;;;;;;2.35;0.70;;;4.00;72.80;;;;;;5077387;28;20112;-72
2020/12/14 02:57:04;;;;;;;1.00;0.70;;;4.20;71.70;;;;;;5077026;28;20040;-70
2020/12/14 02:59:33;;;;;;;0.93;0.60;;;4.40;70.90;;;;;;5077262;28;20038;-70
2020/12/14 03:01:58;;;;;;;1.85;0.70;;;4.60;70.20;;;;;;5076957;28;20078;-70
2020/12/14 03:04:24;;;;;;;0.73;0.30;;;4.80;69.40;;;;;;5059128;28;20024;-70
2020/12/14 03:06:50;;;;;;;1.13;0.57;;;4.90;69.20;;;;;;5076921;28;20021;-70
2020/12/14 03:09:18;;;;;;;0.80;0.50;;;5.00;68.00;;;;;;5076907;28;20427;-69
2020/12/14 03:11:44;;;;;;;0.70;0.40;;;5.20;67.90;;;;;;5077167;28;20020;-70
2020/12/14 03:14:09;;;;;;;1.10;0.63;;;5.30;67.30;;;;;;5059042;28;20030;-70
2020/12/14 03:16:49;;;;;;;0.80;0.50;;;5.40;67.40;;;;;;5076866;28;20016;-70
2020/12/14 03:19:15;;;;;;;0.77;0.40;;;5.40;67.40;;;;;;5076688;28;20025;-70
2020/12/14 03:21:41;;;;;;;0.55;0.40;;;5.40;68.20;;;;;;5076767;28;20019;-69
2020/12/14 03:24:07;;;;;;;0.60;0.47;;;5.30;68.10;;;;;;5058940;28;20293;-70
2020/12/14 03:26:33;;;;;;;1.20;0.60;;;5.30;69.00;;;;;;5076549;28;20506;-70
2020/12/14 03:28:59;;;;;;;1.15;0.60;;;5.20;67.40;;;;;;5076429;28;20048;-71
2020/12/14 03:31:25;;;;;;;2.22;1.60;;;5.20;67.70;;;;;;5076675;28;20412;-72
2020/12/14 03:33:53;;;;;;;0.60;0.40;;;5.10;69.20;;;;;;5076526;28;20086;-70
2020/12/14 03:36:20;;;;;;;1.00;0.60;;;5.20;67.40;;;;;;5058822;28;20051;-70
2020/12/14 03:38:47;;;;;;;0.93;0.60;;;5.20;67.50;;;;;;5076603;28;20099;-70
2020/12/14 03:41:13;;;;;;;1.30;0.90;;;5.30;67.70;;;;;;5058748;28;20140;-70
2020/12/14 03:43:39;;;;;;;1.52;1.00;;;5.30;67.50;;;;;;5058726;28;20417;-70
2020/12/14 03:46:04;;;;;;;2.33;1.40;;;5.10;68.10;;;;;;5076401;28;20020;-70
2020/12/14 03:48:30;;;;;;;5.20;1.30;;;5.00;69.60;;;;;;5076568;28;20024;-70
2020/12/14 03:50:55;;;;;;;1.70;1.30;;;4.70;70.40;;;;;;5076751;28;20031;-70
2020/12/14 03:53:21;;;;;;;2.13;1.30;;;4.50;71.80;;;;;;5076487;28;20051;-70
2020/12/14 03:55:50;;;;;;;1.90;1.35;;;4.30;72.70;;;;;;5058561;28;20024;-70
2020/12/14 03:58:17;;;;;;;2.28;1.27;;;4.10;73.20;;;;;;5058573;28;20032;-71
2020/12/14 04:00:45;;;;;;;2.53;1.60;;;3.90;74.00;;;;;;5076271;28;20481;-70
2020/12/14 04:03:11;;;;;;;4.25;1.67;;;3.80;74.90;;;;;;5076333;28;20021;-71
2020/12/14 04:05:37;;;;;;;2.33;1.35;;;3.80;74.90;;;;;;5076539;28;20035;-71
2020/12/14 04:08:03;;;;;;;3.75;1.52;;;3.60;75.00;;;;;;5076281;28;20033;-70
2020/12/14 04:10:29;;;;;;;3.40;1.75;;;3.50;75.50;;;;;;5076380;28;20028;-71
2020/12/14 04:12:58;;;;;;;2.60;2.00;;;3.40;76.00;;;;;;5076254;28;20456;-70
2020/12/14 04:15:31;;;;;;;1.52;1.02;;;3.30;76.20;;;;;;5076193;28;20082;-70
2020/12/14 04:17:57;;;;;;;2.00;1.40;;;3.40;76.40;;;;;;5058416;28;20082;-70
2020/12/14 04:20:22;;;;;;;1.98;1.50;;;3.40;76.20;;;;;;5058368;28;20032;-70
2020/12/14 04:22:49;;;;;;;1.88;1.30;;;3.40;76.10;;;;;;5058672;28;20059;-70
2020/12/14 04:25:18;;;;;;;3.30;0.93;;;3.40;76.00;;;;;;5076457;28;20048;-70
2020/12/14 04:27:44;;;;;;;3.55;1.25;;;3.40;75.80;;;;;;5076250;28;20383;-70
2020/12/14 04:30:11;;;;;;;0.93;0.70;;;3.50;75.50;;;;;;5076161;28;20044;-70
2020/12/14 04:32:37;;;;;;;0.82;0.40;;;3.50;74.80;;;;;;5076059;28;20060;-70
2020/12/14 04:35:03;;;;;;;1.58;0.47;;;3.60;73.80;;;;;;5076015;28;20412;-70
2020/12/14 04:37:29;;;;;;;1.13;0.70;;;3.70;73.70;;;;;;5076010;28;20025;-70
2020/12/14 04:39:55;;;;;;;2.97;0.70;;;3.70;74.60;;;;;;5077605;28;20297;-70
2020/12/14 04:42:21;;;;;;;1.45;0.80;;;3.80;74.20;;;;;;5061860;28;20028;-70
2020/12/14 04:44:47;;;;;;;1.13;0.70;;;3.70;74.10;;;;;;5079566;28;20024;-70
2020/12/14 04:47:16;;;;;;;1.17;0.60;;;3.80;73.80;;;;;;5061695;28;20111;-71
2020/12/14 04:49:41;;;;;;;1.00;0.68;;;3.70;73.90;;;;;;5079543;28;20036;-70
2020/12/14 04:52:08;;;;;;;1.95;1.00;;;3.70;74.20;;;;;;5079418;28;20025;-70
2020/12/14 04:54:34;;;;;;;1.40;0.82;;;3.70;73.90;;;;;;5079702;28;20290;-70
2020/12/14 04:57:08;;;;;;;1.15;0.80;;;3.70;73.50;;;;;;5079282;28;20086;-71
2020/12/14 04:59:34;;;;;;;1.02;0.60;;;3.80;73.80;;;;;;5079538;28;20067;-71
2020/12/14 05:02:08;;;;;;;1.83;1.02;;;3.70;73.80;;;;;;5079229;28;20090;-71
2020/12/14 05:04:37;;;;;;;2.45;1.10;;;3.60;74.60;;;;;;5079279;28;20502;-70
2020/12/14 05:07:04;;;;;;;1.52;0.80;;;3.50;75.00;;;;;;5079122;28;20038;-70
2020/12/14 05:09:30;;;;;;;0.80;0.60;;;3.50;74.70;;;;;;5079373;28;20021;-70
2020/12/14 05:11:56;;;;;;;0.82;0.60;;;3.60;73.60;;;;;;5061282;28;20416;-70
2020/12/14 05:14:27;;;;;;;0.82;0.50;;;3.60;74.00;;;;;;5061216;28;20059;-70
2020/12/14 05:16:56;;;;;;;1.00;0.70;;;3.50;74.60;;;;;;5079066;28;20031;-70
2020/12/14 05:19:31;;;;;;;1.02;0.47;;;3.30;74.80;;;;;;5079012;28;20024;-70
2020/12/14 05:21:58;;;;;;;1.25;0.70;;;3.20;75.00;;;;;;5078830;28;20081;-70
2020/12/14 05:24:25;;;;;;;1.17;0.60;;;3.20;75.10;;;;;;5078869;28;20027;-70
2020/12/14 05:26:51;;;;;;;1.88;0.85;;;3.30;75.30;;;;;;5078685;28;20130;-70
2020/12/14 05:29:29;;;;;;;9.07;3.50;;;3.40;75.10;;;;;;5078769;28;20312;-70
2020/12/14 05:32:10;;;;;;;169.50;52.58;;;3.40;75.60;;;;;;5078651;28;20060;-71
2020/12/14 05:34:37;;;;;;;179.07;53.13;;;3.40;75.20;;;;;;5078630;28;20407;-69
2020/12/14 05:37:06;;;;;;;54.22;16.02;;;3.30;75.90;;;;;;5078585;28;20049;-70
2020/12/14 05:39:32;;;;;;;35.38;11.32;;;3.20;75.60;;;;;;5078516;28;20052;-70
2020/12/14 05:42:10;;;;;;;20.92;7.45;;;3.10;76.30;;;;;;5078467;28;20032;-70
2020/12/14 05:44:36;;;;;;;24.65;8.80;;;3.10;77.00;;;;;;5078392;28;20021;-69
2020/12/14 05:47:02;;;;;;;16.77;6.88;;;3.10;77.80;;;;;;5078331;28;20052;-70
2020/12/14 05:49:28;;;;;;;19.17;6.05;;;3.20;78.20;;;;;;5078395;28;20016;-70
2020/12/14 05:52:03;;;;;;;8.95;3.22;;;3.20;78.40;;;;;;5078037;28;20071;-70
2020/12/14 05:54:36;;;;;;;3.35;1.40;;;3.20;77.50;;;;;;5078787;28;20023;-71
2020/12/14 05:57:03;;;;;;;1.90;1.00;;;3.20;77.60;;;;;;5078446;28;20024;-71
2020/12/14 05:59:33;;;;;;;4.68;1.25;;;3.20;77.20;;;;;;5078693;28;20021;-71
2020/12/14 06:02:03;;;;;;;16.13;7.70;;;3.20;77.00;;;;;;5078089;28;20366;-70
2020/12/14 06:04:33;;;;;;;102.53;46.92;;;3.10;76.60;;;;;;5060268;28;20021;-70
2020/12/14 06:07:04;;;;;;;10.23;5.55;;;3.10;77.20;;;;;;5078286;28;20028;-70
2020/12/14 06:09:36;;;;;;;10.90;4.50;;;3.20;76.00;;;;;;5060275;28;20016;-70
2020/12/14 06:12:10;;;;;;;4.97;1.98;;;3.30;74.00;;;;;;5078124;28;20025;-70
2020/12/14 06:14:39;;;;;;;1.13;0.70;;;3.40;74.70;;;;;;5077787;28;20416;-70
2020/12/14 06:17:10;;;;;;;2.28;1.20;;;3.40;74.20;;;;;;5077725;28;20023;-70
2020/12/14 06:19:36;;;;;;;2.25;1.20;;;3.40;75.10;;;;;;5077745;28;20424;-71
2020/12/14 06:22:06;;;;;;;2.55;1.40;;;3.40;74.90;;;;;;5077667;28;20427;-70
2020/12/14 06:24:34;;;;;;;1.42;0.80;;;3.40;75.70;;;;;;5078198;28;20036;-69
2020/12/14 06:27:00;;;;;;;1.60;1.10;;;3.30;75.20;;;;;;5077465;28;20106;-70
2020/12/14 06:29:34;;;;;;;1.60;1.10;;;3.30;76.00;;;;;;5077909;28;20386;-70
2020/12/14 06:32:01;;;;;;;3.70;1.15;;;3.30;76.10;;;;;;5077530;28;20404;-69
2020/12/14 06:34:32;;;;;;;1.40;0.95;;;3.40;76.60;;;;;;5077473;28;20021;-70
2020/12/14 06:37:03;;;;;;;1.02;0.60;;;3.40;76.50;;;;;;5077567;28;20024;-70
2020/12/14 06:39:30;;;;;;;1.02;0.73;;;3.30;75.50;;;;;;5077606;28;20066;-70
2020/12/14 06:42:11;;;;;;;0.80;0.50;;;3.30;75.70;;;;;;5077298;28;20021;-70
2020/12/14 06:44:43;;;;;;;1.20;0.70;;;3.30;74.80;;;;;;5077223;28;20031;-70
2020/12/14 06:47:16;;;;;;;1.23;0.50;;;3.40;74.00;;;;;;5077273;28;20401;-70
2020/12/14 06:49:43;;;;;;;1.00;0.50;;;3.50;73.90;;;;;;5077314;28;20059;-69
2020/12/14 06:52:09;;;;;;;0.77;0.50;;;3.70;72.50;;;;;;5077162;28;20025;-69
2020/12/14 06:54:43;;;;;;;0.77;0.50;;;4.00;71.30;;;;;;5077081;28;20063;-69
2020/12/14 06:57:19;;;;;;;0.75;0.45;;;4.40;69.80;;;;;;5059329;28;20108;-70
2020/12/14 06:59:52;;;;;;;0.50;0.40;;;4.60;68.60;;;;;;5059253;28;20123;-69
2020/12/14 07:02:18;;;;;;;0.80;0.40;;;4.90;67.90;;;;;;5076490;28;20476;-69
2020/12/14 07:04:45;;;;;;;0.88;0.50;;;5.00;67.70;;;;;;5076893;28;20056;-69
2020/12/14 07:07:11;;;;;;;4.22;0.63;;;5.20;66.80;;;;;;5076943;28;20036;-69
2020/12/14 07:09:40;;;;;;;0.68;0.50;;;5.30;66.10;;;;;;5077381;28;20032;-70
2020/12/14 07:12:09;;;;;;;1.00;0.50;;;5.30;66.00;;;;;;5076860;28;20038;-69
2020/12/14 07:14:52;;;;;;;0.50;0.40;;;5.40;65.80;;;;;;5077352;28;20074;-70
2020/12/14 07:17:17;;;;;;;1.58;0.55;;;5.50;65.40;;;;;;5059061;28;20032;-70
2020/12/14 07:19:47;;;;;;;2.78;0.40;;;5.50;65.80;;;;;;5077081;28;20327;-70
2020/12/14 07:22:20;;;;;;;0.63;0.50;;;5.50;65.00;;;;;;5076724;28;20028;-70
2020/12/14 07:25:08;;;;;;;0.52;0.40;;;5.60;66.30;;;;;;5076788;28;20088;-70
2020/12/14 07:27:34;;;;;;;0.70;0.32;;;5.60;64.70;;;;;;5076936;28;20040;-70
2020/12/14 07:30:06;;;;;;;0.82;0.40;;;5.70;64.90;;;;;;5076997;28;20032;-70
2020/12/14 07:32:32;;;;;;;1.75;0.50;;;5.60;66.30;;;;;;5076851;28;20029;-70
2020/12/14 07:34:58;;;;;;;1.67;1.00;;;5.60;67.10;;;;;;5076571;28;20298;-70
2020/12/14 07:37:25;;;;;;;2.67;1.08;;;5.50;67.60;;;;;;5076802;28;20324;-70
2020/12/14 07:39:52;;;;;;;1.63;0.95;;;5.50;67.40;;;;;;5076541;28;20032;-70
2020/12/14 07:42:24;;;;;;;2.72;1.55;;;5.50;68.40;;;;;;5076557;28;20028;-70
2020/12/14 07:44:50;;;;;;;1.77;0.90;;;5.40;69.10;;;;;;5058723;28;20405;-70
2020/12/14 07:47:20;;;;;;;1.35;0.93;;;5.40;69.10;;;;;;5076509;28;20024;-70
2020/12/14 07:49:46;;;;;;;1.30;1.05;;;5.30;69.80;;;;;;5076614;28;20028;-70
2020/12/14 07:52:26;;;;;;;1.48;1.10;;;5.30;70.40;;;;;;5076620;28;20024;-70
2020/12/14 07:55:06;;;;;;;1.40;1.00;;;5.40;70.30;;;;;;5077111;28;20379;-70
2020/12/14 07:57:36;;;;;;;2.45;1.15;;;5.40;70.80;;;;;;5076527;28;20056;-70
2020/12/14 08:00:05;;;;;;;3.10;1.50;;;5.50;70.20;;;;;;5076911;28;20052;-70
2020/12/14 08:02:34;;;;;;;2.17;1.63;;;5.70;70.90;;;;;;5076596;28;20321;-70
2020/12/14 08:05:01;;;;;;;1.92;1.35;;;5.80;70.70;;;;;;5076293;28;20024;-70
2020/12/14 08:07:52;;;;;;;1.50;1.02;;;5.90;70.50;;;;;;5076308;28;20100;-70
2020/12/14 08:10:20;;;;;;;1.60;0.90;;;5.90;69.40;;;;;;5076435;28;20025;-70
2020/12/14 08:12:47;;;;;;;1.58;1.30;;;6.00;67.70;;;;;;5076422;28;20082;-70
2020/12/14 08:15:18;;;;;;;1.50;0.80;;;6.10;67.30;;;;;;5078640;28;20400;-70
2020/12/14 08:17:50;;;;;;;1.48;0.93;;;6.40;66.00;;;;;;5080041;28;20490;-70
2020/12/14 08:20:36;;;;;;;0.95;0.77;;;6.70;64.00;;;;;;5080039;28;20412;-70
2020/12/14 08:23:16;;;;;;;1.05;0.70;;;6.80;65.20;;;;;;5080028;28;20059;-70
2020/12/14 08:25:45;;;;;;;1.20;0.70;;;6.70;66.40;;;;;;5079792;28;20056;-70
2020/12/14 08:28:11;;;;;;;3.28;1.05;;;6.70;64.80;;;;;;5080087;28;20103;-70
2020/12/14 08:30:39;;;;;;;1.30;0.85;;;6.70;66.30;;;;;;5079897;28;20104;-70
2020/12/14 08:33:21;;;;;;;1.17;0.90;;;6.70;68.10;;;;;;5079865;28;20111;-70
2020/12/14 08:35:52;;;;;;;0.85;0.60;;;6.70;67.10;;;;;;5079390;28;20063;-70
2020/12/14 08:38:20;;;;;;;1.77;1.20;;;6.90;65.40;;;;;;5079745;28;20060;-70
2020/12/14 08:41:17;;;;;;;2.20;1.27;;;7.10;64.50;;;;;;5079599;28;20323;-70
2020/12/14 08:43:43;;;;;;;2.13;1.55;;;7.20;66.80;;;;;;5078346;28;20040;-70
2020/12/14 08:46:14;;;;;;;1.42;1.13;;;7.30;66.10;;;;;;5061813;28;20131;-70
2020/12/14 08:48:48;;;;;;;2.33;1.52;;;7.30;65.20;;;;;;5079579;28;20020;-70
2020/12/14 08:51:18;;;;;;;2.22;1.25;;;7.40;65.30;;;;;;5079764;28;20020;-70
2020/12/14 08:53:46;;;;;;;1.88;1.20;;;7.40;64.80;;;;;;5079537;28;20059;-70
2020/12/14 08:56:17;;;;;;;2.30;1.30;;;7.50;64.10;;;;;;5079411;28;20035;-70
2020/12/14 08:58:49;;;;;;;1.40;1.10;;;7.60;63.70;;;;;;5079348;28;20033;-70
2020/12/14 09:01:16;;;;;;;2.22;1.30;;;7.60;63.20;;;;;;5079193;28;20063;-70
2020/12/14 09:03:45;;;;;;;1.48;1.10;;;7.60;65.30;;;;;;5079272;28;20470;-70
2020/12/14 09:06:23;;;;;;;2.08;1.50;;;7.70;65.30;;;;;;5079753;28;20021;-70
2020/12/14 09:09:05;;;;;;;1.63;1.05;;;7.80;66.30;;;;;;5079247;28;20024;-70
2020/12/14 09:11:34;;;;;;;2.08;1.40;;;7.90;66.70;;;;;;5079191;28;20032;-70
2020/12/14 09:14:08;;;;;;;1.50;1.10;;;8.00;64.90;;;;;;5078996;28;20032;-70
2020/12/14 09:16:35;;;;;;;1.60;1.08;;;8.20;62.90;;;;;;5079275;28;20424;-70
2020/12/14 09:19:02;;;;;;;1.90;1.20;;;8.20;62.40;;;;;;5079003;28;20024;-70
2020/12/14 09:21:30;;;;;;;1.90;1.00;;;8.20;62.40;;;;;;5078841;28;20078;-70
2020/12/14 09:24:15;;;;;;;1.85;1.15;;;8.20;62.60;;;;;;5079141;28;20025;-70
2020/12/14 09:26:43;;;;;;;2.15;1.00;;;8.20;62.40;;;;;;5078057;28;20110;-70
2020/12/14 09:29:12;;;;;;;1.48;1.10;;;8.30;61.60;;;;;;5078778;28;20349;-70
2020/12/14 09:31:39;;;;;;;3.85;1.10;;;8.50;61.60;;;;;;5078726;28;20436;-70
2020/12/14 09:34:06;;;;;;;2.10;1.20;;;8.90;61.20;;;;;;5078603;28;20032;-70
2020/12/14 09:36:33;;;;;;;1.92;1.10;;;9.80;61.30;;;;;;5078644;28;20024;-70
2020/12/14 09:38:59;;;;;;;2.10;1.40;;;11.00;59.20;;;;;;5078651;28;20107;-71
2020/12/14 09:41:33;;;;;;;2.13;1.35;;;12.20;54.60;;;;;;5078458;28;20393;-71
2020/12/14 09:43:59;;;;;;;1.70;1.10;;;13.30;52.50;;;;;;5078454;28;20074;-71
2020/12/14 09:46:26;;;;;;;1.25;0.88;;;14.30;50.70;;;;;;5078601;28;20412;-71
2020/12/14 09:48:58;;;;;;;1.35;0.98;;;15.10;48.20;;;;;;5078428;28;20021;-71
2020/12/14 09:51:24;;;;;;;2.13;1.17;;;15.60;47.20;;;;;;5078622;28;20051;-71
2020/12/14 09:53:50;;;;;;;2.30;1.10;;;15.80;45.00;;;;;;5078114;28;20028;-71
2020/12/14 09:56:17;;;;;;;3.13;1.10;;;15.90;44.30;;;;;;5078257;28;20028;-71
2020/12/14 09:58:43;;;;;;;1.67;1.25;;;15.90;46.00;;;;;;5060482;28;20098;-71
2020/12/14 10:01:11;;;;;;;1.58;1.10;;;16.10;44.60;;;;;;5078068;28;20025;-71
2020/12/14 10:03:36;;;;;;;1.40;1.00;;;16.10;44.20;;;;;;5060334;28;20036;-71
2020/12/14 10:06:03;;;;;;;0.60;0.30;;;16.00;44.10;;;;;;5059174;28;20020;-71
2020/12/14 10:08:29;;;;;;;0.60;0.47;;;15.10;43.30;;;;;;5082127;28;20056;-71
2020/12/14 10:10:56;;;;;;;1.13;0.50;;;15.00;45.10;;;;;;5077136;28;20051;-71
2020/12/14 10:13:25;;;;;;;0.93;0.60;;;15.20;43.70;;;;;;5098148;28;20089;-71
2020/12/14 10:15:51;;;;;;;1.73;0.98;;;15.30;46.00;;;;;;5098123;28;20020;-71
2020/12/14 10:18:23;;;;;;;1.55;1.15;;;15.60;45.90;;;;;;5098073;28;20051;-71
2020/12/14 10:20:48;;;;;;;1.80;1.10;;;16.00;46.20;;;;;;5098290;28;20030;-71
2020/12/14 10:23:14;;;;;;;3.25;1.20;;;16.30;45.20;;;;;;5097949;28;20103;-71
2020/12/14 10:25:41;;;;;;;1.45;1.20;;;16.50;46.50;;;;;;5097706;28;20312;-71
2020/12/14 10:28:07;;;;;;;1.75;1.20;;;16.70;45.10;;;;;;5098104;28;20028;-71
2020/12/14 10:30:36;;;;;;;1.67;1.20;;;16.80;44.60;;;;;;5098122;28;20408;-71
2020/12/14 10:33:03;;;;;;;1.60;0.82;;;16.60;45.20;;;;;;5098202;28;20074;-71
2020/12/14 10:35:29;;;;;;;1.50;0.95;;;16.50;43.90;;;;;;5097723;28;20020;-71
2020/12/14 10:37:57;;;;;;;1.60;1.00;;;16.40;43.50;;;;;;5097083;28;20361;-71
2020/12/14 10:40:27;;;;;;;4.15;1.20;;;16.50;45.60;;;;;;5097712;28;20063;-71
2020/12/14 10:42:54;;;;;;;1.90;1.20;;;16.60;45.10;;;;;;5097632;28;20034;-71
2020/12/14 10:45:20;;;;;;;1.35;0.93;;;16.80;44.00;;;;;;5097723;28;20070;-71
2020/12/14 10:47:45;;;;;;;1.23;0.85;;;17.00;44.10;;;;;;5097573;28;20024;-71
2020/12/14 10:50:13;;;;;;;1.45;1.00;;;17.30;42.70;;;;;;5097564;28;20059;-71
2020/12/14 10:52:39;;;;;;;1.98;0.85;;;17.30;42.10;;;;;;5097669;28;20028;-71
2020/12/14 10:55:05;;;;;;;1.83;1.00;;;17.10;44.10;;;;;;5098146;28;20297;-71
2020/12/14 10:57:31;;;;;;;1.33;0.95;;;17.10;42.30;;;;;;5079677;28;20032;-71
2020/12/14 11:00:06;;;;;;;1.27;0.77;;;16.90;41.90;;;;;;5097223;28;20028;-71
2020/12/14 11:02:38;;;;;;;2.30;1.10;;;16.90;43.90;;;;;;5079357;28;20034;-71
2020/12/14 11:05:06;;;;;;;1.40;0.90;;;16.90;44.70;;;;;;5097380;28;20319;-71
2020/12/14 11:07:32;;;;;;;1.55;1.20;;;16.70;43.60;;;;;;5097181;28;20023;-71
2020/12/14 11:09:59;;;;;;;1.45;0.73;;;16.70;43.60;;;;;;5097374;28;20073;-71
2020/12/14 11:12:25;;;;;;;1.30;0.85;;;16.70;43.80;;;;;;5079187;28;20328;-71
2020/12/14 11:14:52;;;;;;;1.55;1.02;;;16.70;43.20;;;;;;5097043;28;20301;-71
2020/12/14 11:17:17;;;;;;;1.38;0.90;;;16.70;43.30;;;;;;5097311;28;20103;-71
2020/12/14 11:19:44;;;;;;;1.45;0.80;;;16.90;43.50;;;;;;5079364;28;20051;-71
2020/12/14 11:22:10;;;;;;;1.77;0.73;;;17.20;43.30;;;;;;5097349;28;20313;-71
2020/12/14 11:24:36;;;;;;;1.80;1.20;;;17.00;43.80;;;;;;5096893;28;20065;-71
2020/12/14 11:27:02;;;;;;;2.63;1.30;;;17.10;44.40;;;;;;5096769;28;20391;-71
2020/12/14 11:29:27;;;;;;;2.33;1.27;;;17.00;44.00;;;;;;5096940;28;20406;-71
2020/12/14 11:31:54;;;;;;;3.20;1.55;;;16.90;44.30;;;;;;5096847;28;20035;-71
2020/12/14 11:34:20;;;;;;;2.30;1.60;;;16.80;43.30;;;;;;5096966;28;20024;-71
2020/12/14 11:36:46;;;;;;;1.67;1.30;;;17.00;42.90;;;;;;5097055;28;20024;-71
2020/12/14 11:39:12;;;;;;;2.42;1.67;;;16.70;42.50;;;;;;5097683;28;20020;-71
2020/12/14 11:41:40;;;;;;;2.70;1.50;;;16.50;42.50;;;;;;5096710;28;20024;-71
2020/12/14 11:44:06;;;;;;;2.13;1.30;;;16.10;45.30;;;;;;5096640;28;20017;-71
2020/12/14 11:46:31;;;;;;;2.20;1.52;;;15.90;44.50;;;;;;5096758;28;20026;-71
2020/12/14 11:48:57;;;;;;;2.75;1.67;;;15.70;45.60;;;;;;5098694;28;20028;-71
2020/12/14 11:51:23;;;;;;;1.50;1.05;;;15.90;45.60;;;;;;5101152;28;20048;-71
2020/12/14 11:53:49;;;;;;;1.90;1.13;;;15.80;44.10;;;;;;5100991;28;20099;-71
2020/12/14 11:56:16;;;;;;;1.50;1.10;;;15.80;45.20;;;;;;5100817;28;20033;-70
2020/12/14 11:58:42;;;;;;;1.67;1.05;;;15.80;44.40;;;;;;5100819;28;20035;-71
2020/12/14 12:01:07;;;;;;;1.63;1.02;;;15.60;45.80;;;;;;5100614;28;20499;-70
2020/12/14 12:03:36;;;;;;;1.75;1.10;;;15.40;47.00;;;;;;5100701;28;20024;-70
2020/12/14 12:06:01;;;;;;;2.13;1.10;;;15.40;44.60;;;;;;5100627;28;20081;-70
2020/12/14 12:08:27;;;;;;;1.42;1.05;;;15.40;45.00;;;;;;5100613;28;20031;-70
2020/12/14 12:10:53;;;;;;;2.50;1.00;;;15.50;44.20;;;;;;5100652;28;20103;-70
2020/12/14 12:13:19;;;;;;;1.83;1.20;;;15.40;44.90;;;;;;5082576;28;20032;-70
2020/12/14 12:15:45;;;;;;;1.25;0.98;;;15.50;44.40;;;;;;5100667;28;20024;-70
2020/12/14 12:18:11;;;;;;;1.67;1.17;;;15.30;47.10;;;;;;5100408;28;20028;-70
2020/12/14 12:20:38;;;;;;;3.63;1.20;;;15.10;47.50;;;;;;5100335;28;20111;-70
2020/12/14 12:23:06;;;;;;;1.58;0.90;;;14.80;47.50;;;;;;5100358;28;20056;-70
2020/12/14 12:25:32;;;;;;;1.35;0.93;;;14.80;48.10;;;;;;5100049;28;20044;-70
2020/12/14 12:27:58;;;;;;;2.67;1.10;;;14.60;48.70;;;;;;5100487;28;20099;-70
2020/12/14 12:30:25;;;;;;;2.10;1.58;;;14.30;49.50;;;;;;5100500;28;20145;-70
2020/12/14 12:32:51;;;;;;;2.40;1.77;;;14.20;47.20;;;;;;5100276;28;20053;-70
2020/12/14 12:35:17;;;;;;;1.67;1.25;;;14.10;49.40;;;;;;5100027;28;20099;-70
2020/12/14 12:37:42;;;;;;;2.00;1.20;;;14.10;47.50;;;;;;5099936;28;20309;-70
2020/12/14 12:40:09;;;;;;;2.22;1.17;;;13.90;48.40;;;;;;5099957;28;20027;-70
2020/12/14 12:42:35;;;;;;;2.00;1.13;;;13.60;47.50;;;;;;5100125;28;20354;-70
2020/12/14 12:45:02;;;;;;;3.00;1.10;;;13.30;48.20;;;;;;5099896;28;20404;-70
2020/12/14 12:47:28;;;;;;;1.70;1.10;;;12.80;50.50;;;;;;5100102;28;20024;-70
2020/12/14 12:49:53;;;;;;;1.25;0.95;;;12.80;51.20;;;;;;5099956;28;20411;-70
2020/12/14 12:52:19;;;;;;;1.90;0.93;;;12.70;51.80;;;;;;5100092;28;20059;-70
2020/12/14 12:54:45;;;;;;;1.95;1.20;;;12.50;52.80;;;;;;5099581;28;20089;-70
2020/12/14 12:57:11;;;;;;;2.03;1.20;;;12.20;52.00;;;;;;5099657;28;20089;-70